Seguin, TX (78155)

11:17 AM CDT on May 25, 2015 (GMT -0500)
College Heights (South) | | Change Station
CLOSE
Current Station
Personal Weather Station
Location: Seguin, TX
Elevation: 551 ft
Nearby Weather Stations

Elev 551 ft 29.57 °N, 97.96 °W | Updated 8 minutes ago

Overcast
Overcast
79.5 °F
Feels Like 84 °F
N
1.7
Wind Variable Wind from SW

Today
High -- | Low -- °F
--% Chance of Precip.
Yesterday
High -- | Low -- °F
Precip. -- in
6:34 AM 8:23 PM
Waxing Crescent, 50% visible
Pressure 29.88 in
Visibility 10.0 miles
Clouds Few 2000 ft
Scattered Clouds 2500 ft
Mostly Cloudy 5000 ft
Heat Index 84 °F
Dew Point 75 °F
Humidity 87%
Rainfall 0.00 in
Snow Depth Not available.
UV 5 out of 12
Pollen 3.20 out of 12
Air Quality Not available.
Flu Activity Sporadic
SPECI KBAZ 251600Z 17013G22KT 10SM FEW020 SCT025 BKN050 28/23 A2988 RMK AO2 RAE1558 P0000 T02780233

More Conditions Fewer Conditions

Pressure 29.88 in
Visibility 10.0 miles
Clouds Few 2000 ft
Scattered Clouds 2500 ft
Mostly Cloudy 5000 ft
Heat Index 84 °F
Dew Point 75 °F
Humidity 87%
Rainfall 0.00 in
Snow Depth Not available.
UV 5 out of 12
Pollen 3.20 out of 12
Air Quality Not available.
Flu Activity Sporadic
SPECI KBAZ 251600Z 17013G22KT 10SM FEW020 SCT025 BKN050 28/23 A2988 RMK AO2 RAE1558 P0000 T02780233

More Conditions Fewer Conditions

Nowcast | as of 11:05 am CDT on May 25, 2015

Flash Flood Watch in effect through late tonight... Through 100 PM...scattered showers and thunderstorms will continue to develop across the area and move north at 30 mph. In the stronger storms...rainfall rates of up to one inch per hour are possible as well as frequent cloud to ground lihgtning strikes. Outside of the stronger storms rainfall amounts will average a tenth to one half inch.

×

10-Day Weather Forecast

Almanac

Astronomy

May. 25, 2015 Rise Set
Actual Time
Civil Twilight
Nautical Twilight
Astronomical Twilight
Moon
Length of Visible Light
Length of Day
Tomorrow will be .
, % of the Moon is Illuminated

Today's Extremes

State Highs State Lows

Community

WunderPhotos

Upload Photos

1,824,041 photos uploaded!

WunderBlogs® & News

Nearby

Air Quality

  Air Quality AQ Index Pollutant
Not available.

Snow Depth

Station Depth Elevation

Earthquake Activity

City Distance Mag. Time & Date
Minimum magnitude displayed is 2.5.

Coastal Water Temperatures

Place Temperature

Stations

Nearby Weather Stations

Station Location Temp. Windchill Dew Point Humidity Wind Precip. Elev Updated Type